sensor_id;sensor_type;location;lat;lon;timestamp;P1;durP1;ratioP1;P2;durP2;ratioP2
47796;SDS011;33558;50.922;14.068;2022-08-30T00:00:53;7.47;;;4.90;;
47796;SDS011;33558;50.922;14.068;2022-08-30T00:03:29;7.53;;;4.78;;
47796;SDS011;33558;50.922;14.068;2022-08-30T00:05:58;11.10;;;4.67;;
47796;SDS011;33558;50.922;14.068;2022-08-30T00:08:25;8.63;;;5.00;;
47796;SDS011;33558;50.922;14.068;2022-08-30T00:10:51;8.95;;;5.13;;
47796;SDS011;33558;50.922;14.068;2022-08-30T00:13:18;7.23;;;4.87;;
47796;SDS011;33558;50.922;14.068;2022-08-30T00:15:47;10.40;;;4.87;;
47796;SDS011;33558;50.922;14.068;2022-08-30T00:18:13;8.00;;;5.10;;
47796;SDS011;33558;50.922;14.068;2022-08-30T00:20:42;7.37;;;5.03;;
47796;SDS011;33558;50.922;14.068;2022-08-30T00:23:10;11.43;;;4.93;;
47796;SDS011;33558;50.922;14.068;2022-08-30T00:25:37;7.30;;;4.93;;
47796;SDS011;33558;50.922;14.068;2022-08-30T00:28:04;5.50;;;4.70;;
47796;SDS011;33558;50.922;14.068;2022-08-30T00:30:31;11.60;;;5.27;;
47796;SDS011;33558;50.922;14.068;2022-08-30T00:32:59;8.60;;;5.83;;
47796;SDS011;33558;50.922;14.068;2022-08-30T00:35:26;6.87;;;5.37;;
47796;SDS011;33558;50.922;14.068;2022-08-30T00:37:53;8.67;;;5.50;;
47796;SDS011;33558;50.922;14.068;2022-08-30T00:40:19;8.37;;;5.30;;
47796;SDS011;33558;50.922;14.068;2022-08-30T00:42:46;8.50;;;5.80;;
47796;SDS011;33558;50.922;14.068;2022-08-30T00:45:15;11.60;;;6.10;;
47796;SDS011;33558;50.922;14.068;2022-08-30T00:47:43;8.00;;;5.43;;
47796;SDS011;33558;50.922;14.068;2022-08-30T00:50:12;8.07;;;5.20;;
47796;SDS011;33558;50.922;14.068;2022-08-30T00:52:40;7.27;;;5.40;;
47796;SDS011;33558;50.922;14.068;2022-08-30T00:55:08;7.85;;;5.35;;
47796;SDS011;33558;50.922;14.068;2022-08-30T00:57:36;7.40;;;5.57;;
47796;SDS011;33558;50.922;14.068;2022-08-30T01:00:03;8.30;;;5.23;;
47796;SDS011;33558;50.922;14.068;2022-08-30T01:02:32;7.72;;;5.43;;
47796;SDS011;33558;50.922;14.068;2022-08-30T01:04:59;9.73;;;5.40;;
47796;SDS011;33558;50.922;14.068;2022-08-30T01:07:28;9.37;;;5.53;;
47796;SDS011;33558;50.922;14.068;2022-08-30T01:09:54;11.10;;;5.53;;
47796;SDS011;33558;50.922;14.068;2022-08-30T01:12:21;9.50;;;5.10;;
47796;SDS011;33558;50.922;14.068;2022-08-30T01:14:48;9.80;;;5.53;;
47796;SDS011;33558;50.922;14.068;2022-08-30T01:17:15;9.88;;;4.53;;
47796;SDS011;33558;50.922;14.068;2022-08-30T01:19:43;7.72;;;4.70;;
47796;SDS011;33558;50.922;14.068;2022-08-30T01:22:16;12.63;;;5.45;;
47796;SDS011;33558;50.922;14.068;2022-08-30T01:24:49;7.28;;;4.55;;
47796;SDS011;33558;50.922;14.068;2022-08-30T01:27:16;7.15;;;4.88;;
47796;SDS011;33558;50.922;14.068;2022-08-30T01:29:43;6.57;;;4.47;;
47796;SDS011;33558;50.922;14.068;2022-08-30T01:32:14;10.77;;;4.90;;
47796;SDS011;33558;50.922;14.068;2022-08-30T01:34:42;7.32;;;4.82;;
47796;SDS011;33558;50.922;14.068;2022-08-30T01:37:09;6.90;;;4.97;;
47796;SDS011;33558;50.922;14.068;2022-08-30T01:39:36;7.57;;;4.03;;
47796;SDS011;33558;50.922;14.068;2022-08-30T01:42:04;8.35;;;4.00;;
47796;SDS011;33558;50.922;14.068;2022-08-30T01:44:31;7.55;;;4.15;;
47796;SDS011;33558;50.922;14.068;2022-08-30T01:46:58;7.40;;;4.27;;
47796;SDS011;33558;50.922;14.068;2022-08-30T01:49:24;7.37;;;5.07;;
47796;SDS011;33558;50.922;14.068;2022-08-30T01:51:51;8.07;;;4.35;;
47796;SDS011;33558;50.922;14.068;2022-08-30T01:54:18;6.73;;;4.27;;
47796;SDS011;33558;50.922;14.068;2022-08-30T01:56:44;6.87;;;4.30;;
47796;SDS011;33558;50.922;14.068;2022-08-30T01:59:12;6.82;;;4.63;;
47796;SDS011;33558;50.922;14.068;2022-08-30T02:01:39;7.65;;;4.32;;
47796;SDS011;33558;50.922;14.068;2022-08-30T02:04:07;6.13;;;4.13;;
47796;SDS011;33558;50.922;14.068;2022-08-30T02:06:36;5.32;;;4.25;;
47796;SDS011;33558;50.922;14.068;2022-08-30T02:09:03;7.90;;;4.65;;
47796;SDS011;33558;50.922;14.068;2022-08-30T02:11:30;7.85;;;4.53;;
47796;SDS011;33558;50.922;14.068;2022-08-30T02:13:57;11.45;;;5.20;;
47796;SDS011;33558;50.922;14.068;2022-08-30T02:16:25;6.10;;;4.60;;
47796;SDS011;33558;50.922;14.068;2022-08-30T02:18:52;7.70;;;4.63;;
47796;SDS011;33558;50.922;14.068;2022-08-30T02:21:20;7.57;;;4.70;;
47796;SDS011;33558;50.922;14.068;2022-08-30T02:23:47;7.68;;;4.43;;
47796;SDS011;33558;50.922;14.068;2022-08-30T02:26:14;8.17;;;4.47;;
47796;SDS011;33558;50.922;14.068;2022-08-30T02:28:41;8.05;;;4.18;;
47796;SDS011;33558;50.922;14.068;2022-08-30T02:31:08;5.05;;;4.03;;
47796;SDS011;33558;50.922;14.068;2022-08-30T02:33:37;6.03;;;4.23;;
47796;SDS011;33558;50.922;14.068;2022-08-30T02:36:04;6.27;;;4.40;;
47796;SDS011;33558;50.922;14.068;2022-08-30T02:38:31;6.38;;;4.20;;
47796;SDS011;33558;50.922;14.068;2022-08-30T02:40:58;5.75;;;3.95;;
47796;SDS011;33558;50.922;14.068;2022-08-30T02:43:25;9.17;;;5.00;;
47796;SDS011;33558;50.922;14.068;2022-08-30T02:45:51;7.87;;;4.30;;
47796;SDS011;33558;50.922;14.068;2022-08-30T02:48:18;7.07;;;4.28;;
47796;SDS011;33558;50.922;14.068;2022-08-30T02:50:48;9.20;;;4.40;;
47796;SDS011;33558;50.922;14.068;2022-08-30T02:53:16;6.63;;;4.10;;
47796;SDS011;33558;50.922;14.068;2022-08-30T02:55:45;8.55;;;4.32;;
47796;SDS011;33558;50.922;14.068;2022-08-30T02:58:12;6.57;;;3.80;;
47796;SDS011;33558;50.922;14.068;2022-08-30T03:00:39;8.05;;;4.50;;
47796;SDS011;33558;50.922;14.068;2022-08-30T03:03:06;6.78;;;4.50;;
47796;SDS011;33558;50.922;14.068;2022-08-30T03:05:33;7.97;;;4.17;;
47796;SDS011;33558;50.922;14.068;2022-08-30T03:08:02;6.93;;;4.35;;
47796;SDS011;33558;50.922;14.068;2022-08-30T03:10:28;5.45;;;4.75;;
47796;SDS011;33558;50.922;14.068;2022-08-30T03:12:56;6.80;;;4.68;;
47796;SDS011;33558;50.922;14.068;2022-08-30T03:15:22;5.15;;;4.10;;
47796;SDS011;33558;50.922;14.068;2022-08-30T03:17:50;8.55;;;5.10;;
47796;SDS011;33558;50.922;14.068;2022-08-30T03:20:17;6.20;;;3.97;;
47796;SDS011;33558;50.922;14.068;2022-08-30T03:22:44;5.22;;;3.88;;
47796;SDS011;33558;50.922;14.068;2022-08-30T03:25:12;5.57;;;4.13;;
47796;SDS011;33558;50.922;14.068;2022-08-30T03:27:39;8.13;;;4.63;;
47796;SDS011;33558;50.922;14.068;2022-08-30T03:30:07;7.03;;;4.73;;
47796;SDS011;33558;50.922;14.068;2022-08-30T03:32:34;10.30;;;4.53;;
47796;SDS011;33558;50.922;14.068;2022-08-30T03:35:01;7.28;;;4.32;;
47796;SDS011;33558;50.922;14.068;2022-08-30T03:37:28;7.95;;;4.78;;
47796;SDS011;33558;50.922;14.068;2022-08-30T03:39:54;5.53;;;4.43;;
47796;SDS011;33558;50.922;14.068;2022-08-30T03:42:22;6.03;;;4.30;;
47796;SDS011;33558;50.922;14.068;2022-08-30T03:44:49;6.70;;;4.88;;
47796;SDS011;33558;50.922;14.068;2022-08-30T03:47:16;5.53;;;4.20;;
47796;SDS011;33558;50.922;14.068;2022-08-30T03:49:42;5.82;;;4.35;;
47796;SDS011;33558;50.922;14.068;2022-08-30T03:52:09;5.70;;;4.15;;
47796;SDS011;33558;50.922;14.068;2022-08-30T03:54:35;8.68;;;4.43;;
47796;SDS011;33558;50.922;14.068;2022-08-30T03:57:04;5.40;;;4.30;;
47796;SDS011;33558;50.922;14.068;2022-08-30T03:59:33;6.40;;;4.30;;
47796;SDS011;33558;50.922;14.068;2022-08-30T04:01:59;8.45;;;4.82;;
47796;SDS011;33558;50.922;14.068;2022-08-30T04:04:26;7.50;;;4.72;;
47796;SDS011;33558;50.922;14.068;2022-08-30T04:06:53;4.75;;;4.20;;
47796;SDS011;33558;50.922;14.068;2022-08-30T04:09:19;9.18;;;4.82;;
47796;SDS011;33558;50.922;14.068;2022-08-30T04:11:46;7.85;;;4.95;;
47796;SDS011;33558;50.922;14.068;2022-08-30T04:14:12;8.15;;;4.70;;
47796;SDS011;33558;50.922;14.068;2022-08-30T04:16:40;12.40;;;5.50;;
47796;SDS011;33558;50.922;14.068;2022-08-30T04:19:07;5.78;;;4.40;;
47796;SDS011;33558;50.922;14.068;2022-08-30T04:21:34;7.45;;;4.32;;
47796;SDS011;33558;50.922;14.068;2022-08-30T04:24:01;8.50;;;4.68;;
47796;SDS011;33558;50.922;14.068;2022-08-30T04:26:28;7.00;;;4.53;;
47796;SDS011;33558;50.922;14.068;2022-08-30T04:28:54;5.63;;;4.55;;
47796;SDS011;33558;50.922;14.068;2022-08-30T04:31:22;11.30;;;5.35;;
47796;SDS011;33558;50.922;14.068;2022-08-30T04:33:50;8.02;;;5.28;;
47796;SDS011;33558;50.922;14.068;2022-08-30T04:36:16;8.18;;;5.32;;
47796;SDS011;33558;50.922;14.068;2022-08-30T04:38:44;14.80;;;5.63;;
47796;SDS011;33558;50.922;14.068;2022-08-30T04:41:13;7.47;;;5.10;;
47796;SDS011;33558;50.922;14.068;2022-08-30T04:43:40;7.30;;;5.97;;
47796;SDS011;33558;50.922;14.068;2022-08-30T04:46:07;8.13;;;5.05;;
47796;SDS011;33558;50.922;14.068;2022-08-30T04:48:35;10.52;;;6.20;;
47796;SDS011;33558;50.922;14.068;2022-08-30T04:51:04;8.27;;;5.45;;
47796;SDS011;33558;50.922;14.068;2022-08-30T04:53:31;7.13;;;5.38;;
47796;SDS011;33558;50.922;14.068;2022-08-30T04:55:58;9.40;;;5.05;;
47796;SDS011;33558;50.922;14.068;2022-08-30T04:58:25;7.85;;;5.15;;
47796;SDS011;33558;50.922;14.068;2022-08-30T05:00:52;7.40;;;4.80;;
47796;SDS011;33558;50.922;14.068;2022-08-30T05:03:18;8.05;;;5.50;;
47796;SDS011;33558;50.922;14.068;2022-08-30T05:05:46;8.75;;;5.05;;
47796;SDS011;33558;50.922;14.068;2022-08-30T05:08:16;11.35;;;4.57;;
47796;SDS011;33558;50.922;14.068;2022-08-30T05:10:45;5.35;;;4.63;;
47796;SDS011;33558;50.922;14.068;2022-08-30T05:13:12;6.10;;;4.85;;
47796;SDS011;33558;50.922;14.068;2022-08-30T05:15:40;7.70;;;4.35;;
47796;SDS011;33558;50.922;14.068;2022-08-30T05:18:08;7.85;;;5.32;;
47796;SDS011;33558;50.922;14.068;2022-08-30T05:20:36;7.00;;;4.70;;
47796;SDS011;33558;50.922;14.068;2022-08-30T05:23:03;6.68;;;4.57;;
47796;SDS011;33558;50.922;14.068;2022-08-30T05:25:33;6.18;;;4.43;;
47796;SDS011;33558;50.922;14.068;2022-08-30T05:28:02;6.10;;;4.63;;
47796;SDS011;33558;50.922;14.068;2022-08-30T05:30:30;7.25;;;4.75;;
47796;SDS011;33558;50.922;14.068;2022-08-30T05:32:58;6.85;;;4.97;;
47796;SDS011;33558;50.922;14.068;2022-08-30T05:35:24;5.65;;;4.57;;
47796;SDS011;33558;50.922;14.068;2022-08-30T05:37:51;6.28;;;5.05;;
47796;SDS011;33558;50.922;14.068;2022-08-30T05:40:18;5.13;;;4.55;;
47796;SDS011;33558;50.922;14.068;2022-08-30T05:42:46;6.72;;;5.05;;
47796;SDS011;33558;50.922;14.068;2022-08-30T05:45:13;6.20;;;4.72;;
47796;SDS011;33558;50.922;14.068;2022-08-30T05:47:40;6.47;;;4.55;;
47796;SDS011;33558;50.922;14.068;2022-08-30T05:50:07;8.32;;;5.05;;
47796;SDS011;33558;50.922;14.068;2022-08-30T05:52:35;4.72;;;4.25;;
47796;SDS011;33558;50.922;14.068;2022-08-30T05:55:01;7.68;;;4.93;;
47796;SDS011;33558;50.922;14.068;2022-08-30T05:57:30;5.60;;;3.95;;
47796;SDS011;33558;50.922;14.068;2022-08-30T05:59:59;5.45;;;4.13;;
47796;SDS011;33558;50.922;14.068;2022-08-30T06:02:26;5.45;;;4.60;;
47796;SDS011;33558;50.922;14.068;2022-08-30T06:04:52;10.15;;;4.80;;
47796;SDS011;33558;50.922;14.068;2022-08-30T06:07:21;8.35;;;4.30;;
47796;SDS011;33558;50.922;14.068;2022-08-30T06:09:48;5.45;;;3.97;;
47796;SDS011;33558;50.922;14.068;2022-08-30T06:12:14;5.63;;;4.20;;
47796;SDS011;33558;50.922;14.068;2022-08-30T06:14:41;6.82;;;4.05;;
47796;SDS011;33558;50.922;14.068;2022-08-30T06:17:10;4.60;;;4.07;;
47796;SDS011;33558;50.922;14.068;2022-08-30T06:19:37;5.75;;;3.58;;
47796;SDS011;33558;50.922;14.068;2022-08-30T06:22:08;5.72;;;4.00;;
47796;SDS011;33558;50.922;14.068;2022-08-30T06:24:35;4.15;;;3.72;;
47796;SDS011;33558;50.922;14.068;2022-08-30T06:27:02;4.97;;;4.13;;
47796;SDS011;33558;50.922;14.068;2022-08-30T06:29:29;5.03;;;4.50;;
47796;SDS011;33558;50.922;14.068;2022-08-30T06:31:55;4.93;;;4.40;;
47796;SDS011;33558;50.922;14.068;2022-08-30T06:34:24;6.80;;;5.20;;
47796;SDS011;33558;50.922;14.068;2022-08-30T06:36:51;5.20;;;4.70;;
47796;SDS011;33558;50.922;14.068;2022-08-30T06:39:18;5.85;;;4.60;;
47796;SDS011;33558;50.922;14.068;2022-08-30T06:41:45;7.25;;;5.40;;
47796;SDS011;33558;50.922;14.068;2022-08-30T06:44:25;5.10;;;4.35;;
47796;SDS011;33558;50.922;14.068;2022-08-30T06:46:51;9.52;;;5.80;;
47796;SDS011;33558;50.922;14.068;2022-08-30T06:49:18;7.75;;;5.40;;
47796;SDS011;33558;50.922;14.068;2022-08-30T06:51:46;6.82;;;4.47;;
47796;SDS011;33558;50.922;14.068;2022-08-30T06:54:13;8.75;;;5.88;;
47796;SDS011;33558;50.922;14.068;2022-08-30T06:56:40;6.57;;;5.38;;
47796;SDS011;33558;50.922;14.068;2022-08-30T06:59:06;6.90;;;6.10;;
47796;SDS011;33558;50.922;14.068;2022-08-30T07:01:33;7.43;;;5.38;;
47796;SDS011;33558;50.922;14.068;2022-08-30T07:04:00;9.60;;;5.93;;
47796;SDS011;33558;50.922;14.068;2022-08-30T07:06:27;6.70;;;5.47;;
47796;SDS011;33558;50.922;14.068;2022-08-30T07:08:57;7.70;;;5.85;;
47796;SDS011;33558;50.922;14.068;2022-08-30T07:11:24;7.15;;;6.18;;
47796;SDS011;33558;50.922;14.068;2022-08-30T07:13:53;7.25;;;5.07;;
47796;SDS011;33558;50.922;14.068;2022-08-30T07:16:19;6.72;;;5.82;;
47796;SDS011;33558;50.922;14.068;2022-08-30T07:18:46;5.88;;;5.10;;
47796;SDS011;33558;50.922;14.068;2022-08-30T07:21:15;8.85;;;5.60;;
47796;SDS011;33558;50.922;14.068;2022-08-30T07:23:43;7.97;;;5.65;;
47796;SDS011;33558;50.922;14.068;2022-08-30T07:26:14;7.38;;;5.18;;
47796;SDS011;33558;50.922;14.068;2022-08-30T07:28:43;7.82;;;5.82;;
47796;SDS011;33558;50.922;14.068;2022-08-30T07:31:11;7.32;;;5.45;;
47796;SDS011;33558;50.922;14.068;2022-08-30T07:33:38;5.72;;;4.82;;
47796;SDS011;33558;50.922;14.068;2022-08-30T07:36:05;7.95;;;5.47;;
47796;SDS011;33558;50.922;14.068;2022-08-30T07:38:33;5.78;;;4.75;;
47796;SDS011;33558;50.922;14.068;2022-08-30T07:41:00;6.47;;;5.28;;
47796;SDS011;33558;50.922;14.068;2022-08-30T07:43:28;7.07;;;4.63;;
47796;SDS011;33558;50.922;14.068;2022-08-30T07:45:59;6.85;;;4.90;;
47796;SDS011;33558;50.922;14.068;2022-08-30T07:48:26;7.93;;;5.50;;
47796;SDS011;33558;50.922;14.068;2022-08-30T07:50:53;6.32;;;5.50;;
47796;SDS011;33558;50.922;14.068;2022-08-30T07:53:20;5.00;;;4.40;;
47796;SDS011;33558;50.922;14.068;2022-08-30T07:55:46;6.53;;;5.20;;
47796;SDS011;33558;50.922;14.068;2022-08-30T07:58:13;8.63;;;5.40;;
47796;SDS011;33558;50.922;14.068;2022-08-30T08:00:41;7.18;;;5.30;;
47796;SDS011;33558;50.922;14.068;2022-08-30T08:03:08;5.85;;;5.25;;
47796;SDS011;33558;50.922;14.068;2022-08-30T08:05:36;6.05;;;5.20;;
47796;SDS011;33558;50.922;14.068;2022-08-30T08:08:03;6.35;;;4.72;;
47796;SDS011;33558;50.922;14.068;2022-08-30T08:10:30;7.80;;;4.90;;
47796;SDS011;33558;50.922;14.068;2022-08-30T08:12:57;6.65;;;4.63;;
47796;SDS011;33558;50.922;14.068;2022-08-30T08:15:24;8.65;;;5.15;;
47796;SDS011;33558;50.922;14.068;2022-08-30T08:17:53;6.20;;;4.43;;
47796;SDS011;33558;50.922;14.068;2022-08-30T08:20:19;6.50;;;4.25;;
47796;SDS011;33558;50.922;14.068;2022-08-30T08:22:46;5.10;;;4.00;;
47796;SDS011;33558;50.922;14.068;2022-08-30T08:25:13;6.75;;;4.03;;
47796;SDS011;33558;50.922;14.068;2022-08-30T08:27:40;6.78;;;4.78;;
47796;SDS011;33558;50.922;14.068;2022-08-30T08:30:07;5.28;;;4.40;;
47796;SDS011;33558;50.922;14.068;2022-08-30T08:32:34;6.88;;;4.20;;
47796;SDS011;33558;50.922;14.068;2022-08-30T08:35:03;7.00;;;4.53;;
47796;SDS011;33558;50.922;14.068;2022-08-30T08:46:13;5.55;;;4.13;;
47796;SDS011;33558;50.922;14.068;2022-08-30T08:48:42;4.32;;;3.80;;
47796;SDS011;33558;50.922;14.068;2022-08-30T08:51:15;6.10;;;4.40;;
47796;SDS011;33558;50.922;14.068;2022-08-30T08:54:03;6.05;;;4.28;;
47796;SDS011;33558;50.922;14.068;2022-08-30T08:57:12;7.72;;;4.28;;
47796;SDS011;33558;50.922;14.068;2022-08-30T08:59:40;6.88;;;4.32;;
47796;SDS011;33558;50.922;14.068;2022-08-30T09:02:14;6.03;;;4.20;;
47796;SDS011;33558;50.922;14.068;2022-08-30T09:04:49;5.82;;;3.70;;
47796;SDS011;33558;50.922;14.068;2022-08-30T09:07:20;4.38;;;3.92;;
47796;SDS011;33558;50.922;14.068;2022-08-30T09:09:48;6.32;;;3.88;;
47796;SDS011;33558;50.922;14.068;2022-08-30T09:16:17;5.20;;;3.65;;
47796;SDS011;33558;50.922;14.068;2022-08-30T09:19:26;6.88;;;3.78;;
47796;SDS011;33558;50.922;14.068;2022-08-30T09:21:56;6.20;;;3.17;;
47796;SDS011;33558;50.922;14.068;2022-08-30T09:24:24;7.03;;;3.50;;
47796;SDS011;33558;50.922;14.068;2022-08-30T09:26:51;5.95;;;3.05;;
47796;SDS011;33558;50.922;14.068;2022-08-30T09:29:18;3.88;;;3.20;;
47796;SDS011;33558;50.922;14.068;2022-08-30T09:31:49;6.00;;;3.60;;
47796;SDS011;33558;50.922;14.068;2022-08-30T09:34:18;6.47;;;3.28;;
47796;SDS011;33558;50.922;14.068;2022-08-30T09:36:47;5.18;;;3.10;;
47796;SDS011;33558;50.922;14.068;2022-08-30T09:39:16;5.03;;;3.33;;
47796;SDS011;33558;50.922;14.068;2022-08-30T09:42:58;3.28;;;2.78;;
47796;SDS011;33558;50.922;14.068;2022-08-30T09:45:36;4.32;;;2.92;;
47796;SDS011;33558;50.922;14.068;2022-08-30T09:51:36;3.83;;;2.80;;
47796;SDS011;33558;50.922;14.068;2022-08-30T09:54:11;4.78;;;2.90;;
47796;SDS011;33558;50.922;14.068;2022-08-30T09:56:53;4.00;;;2.58;;
47796;SDS011;33558;50.922;14.068;2022-08-30T09:59:31;3.97;;;2.80;;
47796;SDS011;33558;50.922;14.068;2022-08-30T10:02:05;6.38;;;3.33;;
47796;SDS011;33558;50.922;14.068;2022-08-30T10:11:55;3.45;;;2.50;;
47796;SDS011;33558;50.922;14.068;2022-08-30T10:14:36;4.43;;;2.47;;
47796;SDS011;33558;50.922;14.068;2022-08-30T10:17:23;4.85;;;2.50;;
47796;SDS011;33558;50.922;14.068;2022-08-30T10:20:08;4.20;;;2.55;;
47796;SDS011;33558;50.922;14.068;2022-08-30T10:23:39;4.00;;;2.15;;
47796;SDS011;33558;50.922;14.068;2022-08-30T10:26:11;2.60;;;2.10;;
47796;SDS011;33558;50.922;14.068;2022-08-30T10:29:12;3.47;;;2.25;;
47796;SDS011;33558;50.922;14.068;2022-08-30T10:31:43;4.50;;;2.30;;
47796;SDS011;33558;50.922;14.068;2022-08-30T10:34:13;4.00;;;2.30;;
47796;SDS011;33558;50.922;14.068;2022-08-30T10:36:43;3.78;;;2.00;;
47796;SDS011;33558;50.922;14.068;2022-08-30T10:39:12;2.97;;;1.80;;
47796;SDS011;33558;50.922;14.068;2022-08-30T10:41:48;2.53;;;2.17;;
47796;SDS011;33558;50.922;14.068;2022-08-30T10:44:19;4.30;;;1.90;;
47796;SDS011;33558;50.922;14.068;2022-08-30T10:46:53;3.35;;;1.88;;
47796;SDS011;33558;50.922;14.068;2022-08-30T10:49:29;2.75;;;2.00;;
47796;SDS011;33558;50.922;14.068;2022-08-30T10:51:59;3.50;;;1.90;;
47796;SDS011;33558;50.922;14.068;2022-08-30T10:54:39;4.13;;;2.47;;
47796;SDS011;33558;50.922;14.068;2022-08-30T11:00:52;2.67;;;2.17;;
47796;SDS011;33558;50.922;14.068;2022-08-30T11:03:46;4.88;;;2.15;;
47796;SDS011;33558;50.922;14.068;2022-08-30T11:06:24;3.50;;;2.10;;
47796;SDS011;33558;50.922;14.068;2022-08-30T11:08:57;2.60;;;1.90;;
47796;SDS011;33558;50.922;14.068;2022-08-30T11:11:35;2.80;;;2.13;;
47796;SDS011;33558;50.922;14.068;2022-08-30T11:14:07;5.07;;;2.60;;
47796;SDS011;33558;50.922;14.068;2022-08-30T11:16:37;3.03;;;2.25;;
47796;SDS011;33558;50.922;14.068;2022-08-30T11:19:12;5.68;;;2.42;;
47796;SDS011;33558;50.922;14.068;2022-08-30T11:21:41;4.28;;;2.25;;
47796;SDS011;33558;50.922;14.068;2022-08-30T11:24:11;2.22;;;1.90;;
47796;SDS011;33558;50.922;14.068;2022-08-30T11:26:53;2.22;;;1.88;;
47796;SDS011;33558;50.922;14.068;2022-08-30T11:29:38;3.67;;;1.65;;
47796;SDS011;33558;50.922;14.068;2022-08-30T11:35:05;3.25;;;2.42;;
47796;SDS011;33558;50.922;14.068;2022-08-30T11:50:13;1.90;;;1.42;;
47796;SDS011;33558;50.922;14.068;2022-08-30T11:52:45;2.47;;;1.80;;
47796;SDS011;33558;50.922;14.068;2022-08-30T12:01:13;2.70;;;2.00;;
47796;SDS011;33558;50.922;14.068;2022-08-30T12:03:43;3.38;;;1.88;;
47796;SDS011;33558;50.922;14.068;2022-08-30T12:10:04;2.85;;;1.77;;
47796;SDS011;33558;50.922;14.068;2022-08-30T12:12:49;3.05;;;1.80;;
47796;SDS011;33558;50.922;14.068;2022-08-30T12:15:25;2.60;;;1.67;;
47796;SDS011;33558;50.922;14.068;2022-08-30T12:18:14;1.83;;;1.42;;
47796;SDS011;33558;50.922;14.068;2022-08-30T12:20:56;1.90;;;1.58;;
47796;SDS011;33558;50.922;14.068;2022-08-30T12:23:39;3.22;;;1.70;;
47796;SDS011;33558;50.922;14.068;2022-08-30T12:26:27;2.42;;;1.77;;
47796;SDS011;33558;50.922;14.068;2022-08-30T12:29:08;3.05;;;1.67;;
47796;SDS011;33558;50.922;14.068;2022-08-30T12:31:41;3.03;;;1.50;;
47796;SDS011;33558;50.922;14.068;2022-08-30T12:34:14;3.13;;;1.70;;
47796;SDS011;33558;50.922;14.068;2022-08-30T12:36:48;3.25;;;2.00;;
47796;SDS011;33558;50.922;14.068;2022-08-30T12:39:19;1.60;;;1.50;;
47796;SDS011;33558;50.922;14.068;2022-08-30T12:41:49;1.65;;;1.30;;
47796;SDS011;33558;50.922;14.068;2022-08-30T12:44:17;1.80;;;1.48;;
47796;SDS011;33558;50.922;14.068;2022-08-30T12:46:47;4.38;;;1.80;;
47796;SDS011;33558;50.922;14.068;2022-08-30T12:49:18;2.70;;;1.70;;
47796;SDS011;33558;50.922;14.068;2022-08-30T12:54:47;2.30;;;1.48;;
47796;SDS011;33558;50.922;14.068;2022-08-30T12:57:18;4.30;;;1.27;;
47796;SDS011;33558;50.922;14.068;2022-08-30T13:00:01;3.58;;;1.83;;
47796;SDS011;33558;50.922;14.068;2022-08-30T13:02:40;3.40;;;1.20;;
47796;SDS011;33558;50.922;14.068;2022-08-30T13:08:12;2.63;;;1.42;;
47796;SDS011;33558;50.922;14.068;2022-08-30T13:10:51;1.98;;;1.40;;
47796;SDS011;33558;50.922;14.068;2022-08-30T13:13:28;3.30;;;1.40;;
47796;SDS011;33558;50.922;14.068;2022-08-30T13:16:09;1.77;;;1.08;;
47796;SDS011;33558;50.922;14.068;2022-08-30T13:18:47;1.85;;;1.20;;
47796;SDS011;33558;50.922;14.068;2022-08-30T13:21:22;3.00;;;1.40;;
47796;SDS011;33558;50.922;14.068;2022-08-30T13:23:53;1.67;;;1.20;;
47796;SDS011;33558;50.922;14.068;2022-08-30T13:26:21;1.85;;;1.30;;
47796;SDS011;33558;50.922;14.068;2022-08-30T13:28:50;3.25;;;1.52;;
47796;SDS011;33558;50.922;14.068;2022-08-30T13:31:18;2.17;;;1.52;;
47796;SDS011;33558;50.922;14.068;2022-08-30T13:33:45;2.70;;;1.70;;
47796;SDS011;33558;50.922;14.068;2022-08-30T13:36:13;2.35;;;1.48;;
47796;SDS011;33558;50.922;14.068;2022-08-30T13:38:42;5.50;;;2.17;;
47796;SDS011;33558;50.922;14.068;2022-08-30T13:41:09;3.20;;;1.42;;
47796;SDS011;33558;50.922;14.068;2022-08-30T13:43:35;1.80;;;1.60;;
47796;SDS011;33558;50.922;14.068;2022-08-30T13:46:04;1.95;;;1.40;;
47796;SDS011;33558;50.922;14.068;2022-08-30T13:48:31;3.72;;;1.48;;
47796;SDS011;33558;50.922;14.068;2022-08-30T13:50:58;3.80;;;1.75;;
47796;SDS011;33558;50.922;14.068;2022-08-30T13:53:25;4.10;;;2.00;;
47796;SDS011;33558;50.922;14.068;2022-08-30T13:55:52;2.83;;;1.92;;
47796;SDS011;33558;50.922;14.068;2022-08-30T13:58:18;2.05;;;1.60;;
47796;SDS011;33558;50.922;14.068;2022-08-30T14:00:45;2.92;;;1.90;;
47796;SDS011;33558;50.922;14.068;2022-08-30T14:03:13;2.58;;;1.98;;
47796;SDS011;33558;50.922;14.068;2022-08-30T14:05:41;3.95;;;1.70;;
47796;SDS011;33558;50.922;14.068;2022-08-30T14:08:09;2.20;;;1.48;;
47796;SDS011;33558;50.922;14.068;2022-08-30T14:10:37;3.83;;;1.90;;
47796;SDS011;33558;50.922;14.068;2022-08-30T14:13:04;5.68;;;1.83;;
47796;SDS011;33558;50.922;14.068;2022-08-30T14:15:34;2.63;;;1.45;;
47796;SDS011;33558;50.922;14.068;2022-08-30T14:18:01;2.30;;;1.58;;
47796;SDS011;33558;50.922;14.068;2022-08-30T14:20:29;2.03;;;1.60;;
47796;SDS011;33558;50.922;14.068;2022-08-30T14:22:56;2.90;;;1.55;;
47796;SDS011;33558;50.922;14.068;2022-08-30T14:25:22;3.70;;;1.83;;
47796;SDS011;33558;50.922;14.068;2022-08-30T14:27:52;1.85;;;1.50;;
47796;SDS011;33558;50.922;14.068;2022-08-30T14:30:19;1.30;;;1.20;;
47796;SDS011;33558;50.922;14.068;2022-08-30T14:32:46;5.97;;;1.50;;
47796;SDS011;33558;50.922;14.068;2022-08-30T14:35:13;2.08;;;1.38;;
47796;SDS011;33558;50.922;14.068;2022-08-30T14:37:43;3.65;;;1.30;;
47796;SDS011;33558;50.922;14.068;2022-08-30T14:40:10;1.52;;;1.42;;
47796;SDS011;33558;50.922;14.068;2022-08-30T14:42:37;1.77;;;1.35;;
47796;SDS011;33558;50.922;14.068;2022-08-30T14:45:04;4.57;;;1.80;;
47796;SDS011;33558;50.922;14.068;2022-08-30T14:47:32;2.45;;;1.45;;
47796;SDS011;33558;50.922;14.068;2022-08-30T14:50:00;2.75;;;1.50;;
47796;SDS011;33558;50.922;14.068;2022-08-30T14:52:27;3.55;;;1.50;;
47796;SDS011;33558;50.922;14.068;2022-08-30T14:54:55;6.10;;;1.67;;
47796;SDS011;33558;50.922;14.068;2022-08-30T14:57:23;2.22;;;1.10;;
47796;SDS011;33558;50.922;14.068;2022-08-30T14:59:49;1.65;;;1.20;;
47796;SDS011;33558;50.922;14.068;2022-08-30T15:02:16;3.35;;;1.30;;
47796;SDS011;33558;50.922;14.068;2022-08-30T15:04:42;1.50;;;1.40;;
47796;SDS011;33558;50.922;14.068;2022-08-30T15:07:09;1.40;;;1.15;;
47796;SDS011;33558;50.922;14.068;2022-08-30T15:09:36;3.05;;;1.27;;
47796;SDS011;33558;50.922;14.068;2022-08-30T15:12:04;2.72;;;1.20;;
47796;SDS011;33558;50.922;14.068;2022-08-30T15:14:31;2.75;;;1.23;;
47796;SDS011;33558;50.922;14.068;2022-08-30T15:16:58;2.22;;;1.60;;
47796;SDS011;33558;50.922;14.068;2022-08-30T15:19:26;2.40;;;1.40;;
47796;SDS011;33558;50.922;14.068;2022-08-30T15:21:53;2.20;;;1.20;;
47796;SDS011;33558;50.922;14.068;2022-08-30T15:24:21;2.58;;;1.30;;
47796;SDS011;33558;50.922;14.068;2022-08-30T15:26:49;1.85;;;1.50;;
47796;SDS011;33558;50.922;14.068;2022-08-30T15:29:17;2.58;;;1.42;;
47796;SDS011;33558;50.922;14.068;2022-08-30T15:31:46;1.60;;;1.45;;
47796;SDS011;33558;50.922;14.068;2022-08-30T15:34:13;2.45;;;1.55;;
47796;SDS011;33558;50.922;14.068;2022-08-30T15:36:42;2.25;;;1.58;;
47796;SDS011;33558;50.922;14.068;2022-08-30T15:39:13;1.75;;;1.40;;
47796;SDS011;33558;50.922;14.068;2022-08-30T15:41:40;2.70;;;1.40;;
47796;SDS011;33558;50.922;14.068;2022-08-30T15:44:08;3.55;;;1.65;;
47796;SDS011;33558;50.922;14.068;2022-08-30T15:46:37;2.55;;;1.50;;